Front Ariake — C6RX9 — position and weather

sailwx.info

Track history (hours):
 
Tides and Currents Weather Stations Pressure Air Temp Water Temp Dewpoint Dewpoint Depression Visibility Wind Speed Wind Dir Waves Ship Positions

Front Ariake

Last reported at 2015-Dec-29 14:31 UTC. Time now 2016-Feb-09 15:48 UTC.
Position N 01°60' E 102°12'.
Warning: this ship's position is 42 days out of date.

Length 333 m; draft 11 m.

Type: Tanker. MMSI: 311226956.

Date/timePositionNaut miles runAvg speedWind from/ knotsBaromVisibWave heightAir tempDewpointWater temp
2015-Dec-29 14:31N 01°60' E 102°12'1414.1
2015-Dec-29 13:33N 01°52' E 102°24'1615.3
2015-Dec-29 12:32N 01°46' E 102°38'6616.2
2015-Dec-29 08:28N 01°12' E 103°34'1011.0
2015-Dec-29 07:33N 01°08' E 103°44'1110.7
2015-Dec-29 06:33N 01°13' E 103°54'2 1.3
2015-Dec-29 05:18N 01°15' E 103°53'0 0.0
2015-Dec-29 04:33N 01°15' E 103°53'0 0.0
2015-Dec-29 03:33N 01°15' E 103°53'0 0.0
2015-Dec-29 02:33N 01°15' E 103°53'0 0.0
2015-Dec-29 01:30N 01°15' E 103°53'0 0.0
2015-Dec-29 00:33N 01°15' E 103°53'0 0.0
2015-Dec-28 22:33N 01°15' E 103°53'0 0.0
2015-Dec-28 21:18N 01°15' E 103°53'0 0.0
2015-Dec-28 20:30N 01°15' E 103°53'0 0.0
2015-Dec-28 18:33N 01°15' E 103°53'0 0.1
2015-Dec-28 17:27N 01°15' E 103°53'0 0.0
2015-Dec-28 16:33N 01°15' E 103°53'0 0.0
2015-Dec-28 15:33N 01°15' E 103°53'0 0.0
2015-Dec-28 14:27N 01°15' E 103°53'0 0.0
2015-Dec-28 13:33N 01°15' E 103°53'0 0.1
2015-Dec-28 12:33N 01°15' E 103°53'0 0.0
2015-Dec-28 11:30N 01°15' E 103°53'0 0.1
2015-Dec-28 10:21N 01°15' E 103°53'0 0.0
2015-Dec-28 09:33N 01°15' E 103°53'0 0.1
2015-Dec-28 08:33N 01°15' E 103°54'0 0.1
2015-Dec-28 07:34N 01°15' E 103°54'4 3.9
2015-Dec-28 06:34N 01°15' E 103°57'5 4.6
2015-Dec-28 05:32N 01°16' E 104°02'6 6.4
2015-Dec-28 04:33N 01°17' E 104°08'  
Track history (hours):
 
Tides and Currents Weather Stations Pressure Air Temp Water Temp Dewpoint Dewpoint Depression Visibility Wind Speed Wind Dir Waves Ship Positions

Front Ariake

Last reported at 2015-Dec-29 14:31 UTC. Time now 2016-Feb-09 15:48 UTC.
Position N 01°60' E 102°12'.
Warning: this ship's position is 42 days out of date.

Length 333 m; draft 11 m.

Type: Tanker. MMSI: 311226956.

Date/timePositionNaut miles runAvg speedWind from/ knotsBaromVisibWave heightAir tempDewpointWater temp
2015-Dec-29 14:31N 01°60' E 102°12'1414.1
2015-Dec-29 13:33N 01°52' E 102°24'1615.3
2015-Dec-29 12:32N 01°46' E 102°38'6616.2
2015-Dec-29 08:28N 01°12' E 103°34'1011.0
2015-Dec-29 07:33N 01°08' E 103°44'1110.7
2015-Dec-29 06:33N 01°13' E 103°54'2 1.3
2015-Dec-29 05:18N 01°15' E 103°53'0 0.0
2015-Dec-29 04:33N 01°15' E 103°53'0 0.0
2015-Dec-29 03:33N 01°15' E 103°53'0 0.0
2015-Dec-29 02:33N 01°15' E 103°53'0 0.0
2015-Dec-29 01:30N 01°15' E 103°53'0 0.0
2015-Dec-29 00:33N 01°15' E 103°53'0 0.0
2015-Dec-28 22:33N 01°15' E 103°53'0 0.0
2015-Dec-28 21:18N 01°15' E 103°53'0 0.0
2015-Dec-28 20:30N 01°15' E 103°53'0 0.0
2015-Dec-28 18:33N 01°15' E 103°53'0 0.1
2015-Dec-28 17:27N 01°15' E 103°53'0 0.0
2015-Dec-28 16:33N 01°15' E 103°53'0 0.0
2015-Dec-28 15:33N 01°15' E 103°53'0 0.0
2015-Dec-28 14:27N 01°15' E 103°53'0 0.0
2015-Dec-28 13:33N 01°15' E 103°53'0 0.1
2015-Dec-28 12:33N 01°15' E 103°53'0 0.0
2015-Dec-28 11:30N 01°15' E 103°53'0 0.1
2015-Dec-28 10:21N 01°15' E 103°53'0 0.0
2015-Dec-28 09:33N 01°15' E 103°53'0 0.1
2015-Dec-28 08:33N 01°15' E 103°54'0 0.1
2015-Dec-28 07:34N 01°15' E 103°54'4 3.9
2015-Dec-28 06:34N 01°15' E 103°57'5 4.6
2015-Dec-28 05:32N 01°16' E 104°02'6 6.4
2015-Dec-28 04:33N 01°17' E 104°08'  

Dump ship's entire track history